Time;durP1;ratioP1;P1;durP2;ratioP2;P2;SDS_P1;SDS_P2;PMS_P1;PMS_P2;Temp;Humidity;BMP_temperature;BMP_pressure;BME280_temperature;BME280_humidity;BME280_pressure;Samples;Min_cycle;Max_cycle;Signal;HPM_P1;HPM_P2
2023/09/14 00:00:19;;;;;;;7.70;5.10;;;15.80;1.00;;;;;;5031919;28;20300;-82
2023/09/14 00:02:45;;;;;;;11.57;5.13;;;15.70;1.00;;;;;;5030653;28;20297;-81
2023/09/14 00:05:11;;;;;;;8.63;5.10;;;15.70;1.00;;;;;;5028858;28;20512;-81
2023/09/14 00:07:37;;;;;;;7.97;5.67;;;15.60;1.00;;;;;;5028102;28;20662;-81
2023/09/14 00:10:03;;;;;;;15.27;5.57;;;15.60;1.00;;;;;;5029883;28;20457;-82
2023/09/14 00:12:29;;;;;;;7.93;5.17;;;15.60;1.00;;;;;;5027520;28;20682;-80
2023/09/14 00:14:54;;;;;;;8.17;5.23;;;15.60;1.00;;;;;;5029883;28;20445;-81
2023/09/14 00:17:20;;;;;;;10.93;5.33;;;15.50;1.00;;;;;;5028704;28;20209;-81
2023/09/14 00:19:45;;;;;;;9.63;5.23;;;15.50;1.00;;;;;;5029753;28;20268;-81
2023/09/14 00:22:11;;;;;;;7.40;4.60;;;15.50;1.00;;;;;;5029460;28;20190;-81
2023/09/14 00:24:37;;;;;;;8.63;5.47;;;15.40;1.00;;;;;;5028588;28;20201;-81
2023/09/14 00:27:03;;;;;;;9.70;5.10;;;15.40;1.00;;;;;;5031462;28;20182;-81
2023/09/14 00:29:29;;;;;;;8.90;5.60;;;15.50;1.00;;;;;;5034115;28;20182;-81
2023/09/14 00:31:54;;;;;;;6.60;5.07;;;15.50;1.00;;;;;;5033167;28;20559;-81
2023/09/14 00:34:20;;;;;;;11.77;5.20;;;15.40;1.00;;;;;;5035597;28;20201;-81
2023/09/14 00:36:46;;;;;;;8.03;5.00;;;15.40;1.00;;;;;;5036084;28;20189;-79
2023/09/14 00:39:11;;;;;;;8.90;5.00;;;15.30;1.00;;;;;;5033781;28;20444;-82
2023/09/14 00:41:37;;;;;;;8.10;5.17;;;;;;;;;;5033439;28;21033;-81
2023/09/14 00:44:03;;;;;;;8.80;5.47;;;15.10;1.00;;;;;;5035518;28;20193;-83
2023/09/14 00:46:29;;;;;;;8.20;5.30;;;15.20;1.00;;;;;;5034940;28;20606;-81
2023/09/14 00:48:56;;;;;;;8.33;5.30;;;15.20;1.00;;;;;;5033064;28;20208;-82
2023/09/14 00:51:22;;;;;;;11.60;5.90;;;15.20;1.00;;;;;;5034306;28;20485;-82
2023/09/14 00:53:50;;;;;;;11.80;5.50;;;;;;;;;;5033753;28;20456;-82
2023/09/14 00:56:16;;;;;;;8.47;6.00;;;15.10;1.00;;;;;;5034041;28;20205;-81
2023/09/14 00:58:42;;;;;;;7.87;5.30;;;15.10;1.00;;;;;;5034409;28;20441;-82
2023/09/14 01:01:08;;;;;;;10.80;5.80;;;15.10;1.00;;;;;;5035176;28;20572;-83
2023/09/14 01:03:33;;;;;;;7.63;5.23;;;15.00;1.00;;;;;;5035548;28;20183;-81
2023/09/14 01:05:59;;;;;;;7.23;4.93;;;15.00;1.00;;;;;;5035196;28;20437;-81
2023/09/14 01:08:25;;;;;;;10.63;5.97;;;15.00;1.00;;;;;;5034023;28;20187;-82
2023/09/14 01:10:51;;;;;;;8.63;5.60;;;15.00;1.00;;;;;;5034422;28;20217;-82
2023/09/14 01:13:43;;;;;;;8.37;5.67;;;15.00;1.00;;;;;;5034994;28;20197;-82
2023/09/14 01:16:16;;;;;;;10.97;6.60;;;15.00;1.00;;;;;;5033040;28;20487;-82
2023/09/14 01:18:51;;;;;;;13.93;5.60;;;15.00;1.00;;;;;;5034054;28;20444;-81
2023/09/14 01:21:57;;;;;;;8.50;5.83;;;15.00;1.00;;;;;;5035250;28;20503;-82
2023/09/14 01:24:46;;;;;;;9.07;5.60;;;15.00;1.00;;;;;;5031075;28;20480;-82
2023/09/14 01:27:12;;;;;;;9.10;6.20;;;15.00;1.00;;;;;;5035208;28;21002;-81
2023/09/14 01:29:40;;;;;;;12.60;6.03;;;15.00;1.00;;;;;;5033566;28;20464;-80
2023/09/14 01:32:06;;;;;;;11.70;6.93;;;15.00;1.00;;;;;;5034801;28;20437;-81
2023/09/14 01:34:32;;;;;;;7.90;5.93;;;14.90;1.00;;;;;;5033644;28;20527;-81
2023/09/14 01:36:59;;;;;;;8.80;6.07;;;15.00;1.00;;;;;;5033608;28;20269;-84
2023/09/14 01:39:27;;;;;;;9.50;6.07;;;14.90;1.00;;;;;;5034808;28;20440;-81
2023/09/14 01:41:57;;;;;;;15.07;5.90;;;14.90;1.00;;;;;;5035018;28;20568;-81
2023/09/14 01:44:25;;;;;;;9.13;5.50;;;14.90;1.00;;;;;;5034071;28;20441;-82
2023/09/14 01:46:51;;;;;;;10.13;6.30;;;14.90;1.00;;;;;;5032934;28;20818;-81
2023/09/14 01:49:16;;;;;;;8.77;5.80;;;14.80;1.00;;;;;;5032823;28;20453;-81
2023/09/14 01:51:42;;;;;;;7.20;5.30;;;14.90;1.00;;;;;;5032834;28;20481;-80
2023/09/14 01:54:07;;;;;;;8.80;5.57;;;14.90;1.00;;;;;;5031807;28;20191;-81
2023/09/14 01:56:33;;;;;;;10.03;5.80;;;14.90;1.00;;;;;;5032068;28;20252;-80
2023/09/14 01:58:58;;;;;;;11.73;6.33;;;14.90;1.00;;;;;;5031297;28;20198;-81
2023/09/14 02:01:24;;;;;;;7.50;5.73;;;15.00;1.00;;;;;;5031590;28;20374;-81
2023/09/14 02:03:49;;;;;;;9.97;6.07;;;15.00;1.00;;;;;;5032278;28;20185;-84
2023/09/14 02:06:15;;;;;;;9.23;6.07;;;15.10;1.00;;;;;;5031750;28;20192;-81
2023/09/14 02:08:40;;;;;;;9.00;5.80;;;15.10;1.00;;;;;;5032507;28;20194;-81
2023/09/14 02:11:06;;;;;;;8.70;5.10;;;15.10;1.00;;;;;;5030550;28;20213;-80
2023/09/14 02:13:31;;;;;;;7.50;5.33;;;15.20;1.00;;;;;;5033368;28;20719;-82
2023/09/14 02:15:57;;;;;;;13.63;6.23;;;15.20;1.00;;;;;;5032425;28;20269;-81
2023/09/14 02:18:22;;;;;;;11.97;6.60;;;15.10;1.00;;;;;;5031030;28;20265;-80
2023/09/14 02:20:48;;;;;;;8.10;5.93;;;15.10;1.00;;;;;;5030968;28;20580;-81
2023/09/14 02:23:16;;;;;;;9.77;7.07;;;15.00;1.00;;;;;;5032932;28;20236;-82
2023/09/14 02:25:45;;;;;;;9.07;6.30;;;14.90;1.00;;;;;;5031777;28;20644;-81
2023/09/14 02:28:10;;;;;;;8.10;5.47;;;14.90;1.00;;;;;;5030364;28;20437;-81
2023/09/14 02:30:39;;;;;;;8.03;5.60;;;14.80;1.00;;;;;;5032319;28;20469;-81
2023/09/14 02:33:07;;;;;;;8.90;5.97;;;14.80;1.00;;;;;;5032414;28;20190;-83
2023/09/14 02:35:33;;;;;;;12.67;6.43;;;14.70;1.00;;;;;;5034152;28;20460;-82
2023/09/14 02:37:58;;;;;;;7.83;5.83;;;14.80;1.00;;;;;;5032127;28;20445;-83
2023/09/14 02:40:24;;;;;;;12.07;6.70;;;14.70;1.00;;;;;;5033876;28;20551;-81
2023/09/14 02:42:49;;;;;;;14.27;7.47;;;14.60;1.00;;;;;;5034028;28;20183;-83
2023/09/14 02:45:15;;;;;;;10.53;5.80;;;14.60;1.00;;;;;;5032914;28;20189;-82
2023/09/14 02:47:40;;;;;;;8.27;5.67;;;14.60;1.00;;;;;;5029521;28;20179;-81
2023/09/14 02:50:06;;;;;;;10.00;5.40;;;14.50;1.00;;;;;;5032932;28;20213;-82
2023/09/14 02:52:32;;;;;;;8.57;5.70;;;14.50;1.00;;;;;;5033712;28;20243;-82
2023/09/14 02:54:59;;;;;;;10.10;5.90;;;14.50;1.00;;;;;;5033036;28;20189;-82
2023/09/14 02:57:24;;;;;;;8.90;5.60;;;14.50;1.00;;;;;;5031893;28;20686;-81
2023/09/14 02:59:54;;;;;;;9.77;6.07;;;14.40;1.00;;;;;;5033671;28;20500;-81
2023/09/14 03:02:19;;;;;;;10.90;5.53;;;14.40;1.00;;;;;;5030018;28;20201;-82
2023/09/14 03:04:45;;;;;;;8.13;5.40;;;14.40;1.00;;;;;;5033693;28;20437;-82
2023/09/14 03:07:10;;;;;;;11.40;5.53;;;14.40;1.00;;;;;;5033271;28;20178;-81
2023/09/14 03:09:36;;;;;;;11.30;5.70;;;14.30;1.00;;;;;;5033781;28;20660;-81
2023/09/14 03:12:01;;;;;;;7.83;5.20;;;14.30;1.00;;;;;;5033975;28;20265;-81
2023/09/14 03:14:27;;;;;;;7.70;5.40;;;14.30;1.00;;;;;;5032556;28;20277;-82
2023/09/14 03:16:52;;;;;;;10.03;6.17;;;14.30;1.00;;;;;;5032608;28;20186;-81
2023/09/14 03:19:18;;;;;;;9.20;5.27;;;14.30;1.00;;;;;;5030604;28;20770;-81
2023/09/14 03:21:43;;;;;;;11.13;6.17;;;14.30;1.00;;;;;;5031402;28;20642;-81
2023/09/14 03:24:08;;;;;;;8.53;5.13;;;14.30;1.00;;;;;;5029388;28;20276;-81
2023/09/14 03:26:34;;;;;;;10.50;5.37;;;14.30;1.00;;;;;;5030982;28;20688;-81
2023/09/14 03:28:59;;;;;;;8.13;5.17;;;14.30;1.00;;;;;;5030995;28;20178;-80
2023/09/14 03:31:25;;;;;;;16.97;5.73;;;14.30;1.00;;;;;;5031251;28;20218;-80
2023/09/14 03:33:54;;;;;;;12.20;5.57;;;14.30;1.00;;;;;;5028691;28;20203;-81
2023/09/14 03:36:20;;;;;;;8.13;4.83;;;14.30;1.00;;;;;;5029183;28;20191;-81
2023/09/14 03:38:45;;;;;;;7.10;4.60;;;14.30;1.00;;;;;;5031163;28;20444;-83
2023/09/14 03:41:12;;;;;;;9.77;5.23;;;14.20;1.00;;;;;;5030917;28;20927;-81
2023/09/14 03:43:41;;;;;;;10.10;4.80;;;14.20;1.00;;;;;;5030123;28;20664;-82
2023/09/14 03:46:07;;;;;;;15.90;5.67;;;14.20;1.00;;;;;;5030830;28;20431;-81
2023/09/14 03:48:33;;;;;;;9.73;5.20;;;14.20;1.00;;;;;;5029031;28;20485;-82
2023/09/14 03:51:00;;;;;;;7.83;5.53;;;14.20;1.00;;;;;;5028533;28;20513;-81
2023/09/14 03:53:29;;;;;;;7.60;4.60;;;14.10;1.00;;;;;;5045530;28;20190;-82
2023/09/14 03:55:55;;;;;;;7.27;5.20;;;14.10;1.00;;;;;;5030155;28;20553;-81
2023/09/14 03:58:22;;;;;;;9.33;4.83;;;14.10;1.00;;;;;;5031141;28;20962;-82
2023/09/14 04:00:48;;;;;;;11.07;5.13;;;14.10;1.00;;;;;;5029054;28;20842;-83
2023/09/14 04:03:15;;;;;;;8.53;4.50;;;14.00;1.00;;;;;;5028515;28;20431;-81
2023/09/14 04:05:41;;;;;;;6.90;4.80;;;14.00;1.00;;;;;;5031465;28;20178;-82
2023/09/14 04:08:07;;;;;;;11.60;4.43;;;14.00;1.00;;;;;;5030673;28;20441;-81
2023/09/14 04:10:35;;;;;;;10.80;5.20;;;14.10;1.00;;;;;;5030004;28;20208;-83
2023/09/14 04:13:29;;;;;;;8.13;5.30;;;14.10;1.00;;;;;;5030491;28;20443;-81
2023/09/14 04:15:55;;;;;;;6.40;5.20;;;14.00;1.00;;;;;;5031433;28;20485;-83
2023/09/14 04:18:21;;;;;;;13.60;6.40;;;14.00;1.00;;;;;;5032294;28;20453;-81
2023/09/14 04:20:48;;;;;;;22.23;6.03;;;14.00;1.00;;;;;;5031008;28;20473;-81
2023/09/14 04:23:13;;;;;;;12.43;6.40;;;14.00;1.00;;;;;;5032468;28;20484;-81
2023/09/14 04:25:44;;;;;;;19.73;7.53;;;13.90;1.00;;;;;;5029415;28;20958;-83
2023/09/14 04:28:14;;;;;;;15.80;7.27;;;14.00;1.00;;;;;;5040603;28;20254;-83
2023/09/14 04:30:48;;;;;;;15.00;7.17;;;13.90;1.00;;;;;;5032185;28;20463;-81
2023/09/14 04:33:15;;;;;;;13.57;7.03;;;13.90;1.00;;;;;;5031639;28;20432;-82
2023/09/14 04:35:41;;;;;;;12.70;7.27;;;13.90;1.00;;;;;;5031952;28;20617;-83
2023/09/14 04:38:08;;;;;;;22.80;8.20;;;;;;;;;;5031763;28;20430;-81
2023/09/14 04:40:41;;;;;;;18.33;7.13;;;13.90;1.00;;;;;;5030634;28;20468;-81
2023/09/14 04:43:06;;;;;;;11.63;7.30;;;13.90;1.00;;;;;;5030639;28;20445;-81
2023/09/14 04:45:32;;;;;;;22.83;8.13;;;13.80;1.00;;;;;;5030682;28;20430;-81
2023/09/14 04:47:59;;;;;;;11.77;6.90;;;13.80;1.00;;;;;;5029831;28;20274;-81
2023/09/14 04:50:25;;;;;;;18.70;8.47;;;13.80;1.00;;;;;;5031854;28;20475;-81
2023/09/14 04:52:50;;;;;;;19.70;7.93;;;13.80;1.00;;;;;;5028847;28;20524;-82
2023/09/14 04:55:16;;;;;;;28.50;7.90;;;13.80;1.00;;;;;;5030801;28;20652;-81
2023/09/14 04:57:42;;;;;;;16.30;7.20;;;;;;;;;;5028891;28;20627;-81
2023/09/14 05:00:09;;;;;;;18.17;8.85;;;13.70;1.00;;;;;;5028624;28;20245;-83
2023/09/14 05:02:35;;;;;;;22.00;8.17;;;13.70;1.00;;;;;;5031117;28;20174;-80
2023/09/14 05:05:02;;;;;;;19.47;9.00;;;13.70;1.00;;;;;;5030672;28;20433;-81
2023/09/14 05:07:27;;;;;;;15.20;8.00;;;13.70;1.00;;;;;;5031227;28;20413;-81
2023/09/14 05:09:53;;;;;;;25.33;9.27;;;13.70;1.00;;;;;;5026478;28;20441;-81
2023/09/14 05:12:18;;;;;;;20.23;7.63;;;13.70;1.00;;;;;;5031402;28;20207;-81
2023/09/14 05:14:44;;;;;;;16.90;6.77;;;13.70;1.00;;;;;;5034472;28;20178;-81
2023/09/14 05:17:09;;;;;;;16.70;7.63;;;13.70;1.00;;;;;;5033661;28;20186;-81
2023/09/14 05:19:35;;;;;;;13.93;7.33;;;13.80;1.00;;;;;;5033996;28;20595;-82
2023/09/14 05:22:00;;;;;;;13.67;8.07;;;13.80;1.00;;;;;;5034049;28;20801;-79
2023/09/14 05:24:26;;;;;;;12.47;7.73;;;13.80;1.00;;;;;;5033814;28;20270;-81
2023/09/14 05:26:52;;;;;;;17.73;9.50;;;13.90;1.00;;;;;;5033349;28;20588;-81
2023/09/14 05:29:18;;;;;;;17.63;9.10;;;13.90;1.00;;;;;;5034925;28;20175;-81
2023/09/14 05:31:43;;;;;;;12.43;7.40;;;14.00;1.00;;;;;;5034757;28;20503;-82
2023/09/14 05:34:09;;;;;;;16.83;7.77;;;14.10;1.00;;;;;;5033128;28;20197;-81
2023/09/14 05:36:34;;;;;;;15.23;7.90;;;14.30;1.00;;;;;;5034663;28;20261;-81
2023/09/14 05:39:00;;;;;;;15.00;8.20;;;14.40;1.00;;;;;;5034161;28;20196;-82
2023/09/14 05:41:25;;;;;;;11.73;6.87;;;14.60;1.00;;;;;;5036375;28;20577;-83
2023/09/14 05:43:51;;;;;;;15.97;7.60;;;14.70;1.00;;;;;;5035865;28;20636;-82
2023/09/14 05:46:16;;;;;;;14.23;6.50;;;15.00;1.00;;;;;;5036483;28;20183;-83
2023/09/14 05:48:42;;;;;;;24.47;8.07;;;16.10;1.00;;;;;;5037353;28;20174;-82
2023/09/14 05:51:08;;;;;;;13.00;6.67;;;17.70;1.00;;;;;;5032959;28;20218;-83
2023/09/14 05:53:34;;;;;;;17.30;6.00;;;19.30;24.70;;;;;;5036233;28;20524;-82
2023/09/14 05:55:59;;;;;;;13.17;5.73;;;20.80;99.90;;;;;;5035830;28;20752;-82
2023/09/14 05:58:25;;;;;;;7.57;4.93;;;22.20;99.90;;;;;;5035749;28;20449;-82
2023/09/14 06:00:51;;;;;;;9.00;4.90;;;23.50;90.90;;;;;;5035222;28;20707;-83
2023/09/14 06:03:17;;;;;;;8.20;4.50;;;24.70;1.00;;;;;;5037019;28;20213;-84
2023/09/14 06:05:42;;;;;;;7.70;4.70;;;25.90;1.00;;;;;;5036385;28;20452;-83
2023/09/14 06:08:08;;;;;;;8.97;4.63;;;27.10;1.00;;;;;;5035549;28;20182;-82
2023/09/14 06:10:33;;;;;;;7.67;4.93;;;28.20;1.00;;;;;;5035921;28;20218;-82
2023/09/14 06:12:59;;;;;;;8.70;4.93;;;29.30;1.00;;;;;;5034628;28;20197;-83
2023/09/14 06:15:24;;;;;;;6.57;4.30;;;30.00;1.00;;;;;;5048081;28;20281;-83
2023/09/14 06:17:50;;;;;;;11.53;4.83;;;30.70;1.00;;;;;;5033669;28;20199;-84
2023/09/14 06:20:15;;;;;;;8.93;4.33;;;31.50;1.00;;;;;;5034191;28;20664;-83
2023/09/14 06:22:41;;;;;;;9.13;4.70;;;32.40;1.00;;;;;;5032375;28;20195;-82
2023/09/14 06:25:07;;;;;;;6.80;5.40;;;33.20;1.00;;;;;;5028926;28;20198;-82
2023/09/14 06:27:33;;;;;;;7.30;4.60;;;34.10;1.00;;;;;;5031923;28;20213;-81
2023/09/14 06:29:58;;;;;;;10.33;4.80;;;34.70;1.00;;;;;;5030054;28;20467;-82
2023/09/14 06:32:24;;;;;;;8.00;4.23;;;35.20;1.00;;;;;;5030280;28;20215;-80
2023/09/14 06:34:49;;;;;;;9.73;3.90;;;35.70;1.00;;;;;;5029965;28;20183;-82
2023/09/14 06:37:15;;;;;;;8.27;4.23;;;36.40;1.00;;;;;;5031292;28;20551;-83
2023/09/14 06:39:40;;;;;;;13.97;4.17;;;37.40;1.00;;;;;;5031392;28;20211;-80
2023/09/14 06:42:06;;;;;;;12.27;4.27;;;37.90;1.00;;;;;;5028842;28;20298;-81
2023/09/14 06:44:32;;;;;;;8.53;4.13;;;38.40;1.00;;;;;;5032533;28;20194;-83
2023/09/14 06:46:57;;;;;;;9.07;4.73;;;39.30;1.00;;;;;;5032833;28;20437;-82
2023/09/14 06:49:23;;;;;;;6.33;3.90;;;39.60;1.00;;;;;;5033911;28;20562;-83
2023/09/14 06:51:48;;;;;;;5.60;4.27;;;40.10;1.00;;;;;;5032705;28;20225;-83
2023/09/14 06:54:14;;;;;;;6.83;4.60;;;40.50;1.00;;;;;;5027075;28;20194;-82
2023/09/14 06:56:39;;;;;;;8.20;4.87;;;40.60;1.00;;;;;;5031508;28;20197;-83
2023/09/14 06:59:05;;;;;;;7.90;4.90;;;40.20;1.00;;;;;;5030097;28;20297;-82
2023/09/14 07:01:31;;;;;;;8.30;4.60;;;39.70;1.00;;;;;;5032397;28;20268;-81
2023/09/14 07:03:56;;;;;;;9.47;4.80;;;40.40;1.00;;;;;;5023998;28;20214;-85
2023/09/14 07:06:22;;;;;;;6.77;4.13;;;41.70;99.90;;;;;;5022507;28;20234;-83
2023/09/14 07:08:48;;;;;;;7.47;3.80;;;42.40;99.90;;;;;;5029050;28;20190;-82
2023/09/14 07:11:14;;;;;;;5.90;4.50;;;42.10;99.90;;;;;;5036195;28;20286;-84
2023/09/14 07:13:40;;;;;;;7.70;4.70;;;42.60;99.90;;;;;;5034102;28;20472;-81
2023/09/14 07:16:06;;;;;;;10.17;4.80;;;42.20;99.90;;;;;;5034666;28;20183;-82
2023/09/14 07:18:33;;;;;;;10.23;4.03;;;42.40;99.90;;;;;;5030634;28;20463;-83
2023/09/14 07:21:01;;;;;;;12.90;4.90;;;42.60;99.90;;;;;;5035419;28;20217;-85
2023/09/14 07:23:27;;;;;;;8.27;4.97;;;41.90;99.90;;;;;;5034080;28;20437;-82
2023/09/14 07:25:53;;;;;;;7.07;4.50;;;43.10;99.90;;;;;;5034384;28;20436;-83
2023/09/14 07:28:47;;;;;;;8.87;4.50;;;43.40;99.90;;;;;;5035604;28;20197;-83
2023/09/14 07:31:42;;;;;;;6.73;4.67;;;43.20;99.90;;;;;;5037350;28;20229;-82
2023/09/14 07:34:08;;;;;;;8.57;4.27;;;44.20;99.90;;;;;;5031430;28;20434;-81
2023/09/14 07:36:33;;;;;;;7.73;5.03;;;44.80;99.90;;;;;;5028775;28;20444;-83
2023/09/14 07:39:16;;;;;;;5.67;4.73;;;43.90;99.90;;;;;;5037920;28;20204;-83
2023/09/14 07:41:42;;;;;;;5.73;4.67;;;43.90;99.90;;;;;;5035431;28;20212;-82
2023/09/14 07:44:08;;;;;;;8.03;5.40;;;44.20;99.90;;;;;;5031742;28;20524;-83
2023/09/14 07:46:33;;;;;;;6.80;5.33;;;44.60;99.90;;;;;;5036497;28;20186;-80
2023/09/14 07:49:02;;;;;;;6.27;5.30;;;44.80;99.90;;;;;;5048684;28;20217;-81
2023/09/14 07:51:27;;;;;;;10.00;5.07;;;45.60;99.90;;;;;;5038215;28;20220;-83
2023/09/14 07:53:53;;;;;;;9.97;6.37;;;45.10;99.90;;;;;;5035342;28;20812;-82
2023/09/14 07:56:19;;;;;;;6.57;5.47;;;43.90;99.90;;;;;;5035657;28;20183;-84
2023/09/14 07:58:44;;;;;;;5.50;5.00;;;44.60;99.90;;;;;;5036418;28;20186;-83
2023/09/14 08:01:10;;;;;;;7.43;5.43;;;45.10;99.90;;;;;;5033844;28;20304;-81
2023/09/14 08:03:35;;;;;;;9.33;5.50;;;44.80;99.90;;;;;;5031098;28;20182;-83
2023/09/14 08:06:01;;;;;;;7.43;6.07;;;45.20;99.90;;;;;;5031606;28;20183;-83
2023/09/14 08:08:27;;;;;;;6.33;5.40;;;44.10;99.90;;;;;;5031992;28;20537;-81
2023/09/14 08:10:53;;;;;;;6.27;5.50;;;45.40;99.90;;;;;;5030351;28;20636;-81
2023/09/14 08:13:19;;;;;;;6.53;5.67;;;45.50;99.90;;;;;;5019845;28;20185;-83
2023/09/14 08:15:46;;;;;;;8.53;7.73;;;45.60;99.90;;;;;;5024636;28;20435;-83
2023/09/14 08:18:11;;;;;;;7.60;6.80;;;46.00;99.90;;;;;;5025169;28;20434;-82
2023/09/14 08:20:44;;;;;;;7.33;6.63;;;44.20;99.90;;;;;;5031264;28;20473;-82
2023/09/14 08:23:12;;;;;;;12.73;8.07;;;45.20;99.90;;;;;;5034073;28;20182;-82
2023/09/14 08:25:43;;;;;;;9.47;8.03;;;45.10;99.90;;;;;;5032502;28;20432;-84
2023/09/14 08:28:18;;;;;;;11.10;7.30;;;46.00;99.90;;;;;;5028850;28;20467;-82
2023/09/14 08:30:45;;;;;;;8.10;7.30;;;46.70;99.90;;;;;;5029105;28;20976;-83
2023/09/14 08:33:11;;;;;;;9.77;8.07;;;47.30;99.90;;;;;;5028593;28;20520;-82
2023/09/14 08:35:37;;;;;;;8.57;7.70;;;46.20;99.90;;;;;;5034107;28;20517;-83
2023/09/14 08:38:05;;;;;;;12.93;8.77;;;45.90;99.90;;;;;;5029988;28;20277;-83
2023/09/14 08:40:31;;;;;;;8.80;6.70;;;45.70;99.90;;;;;;5030957;28;20209;-84
2023/09/14 08:42:59;;;;;;;8.90;8.00;;;46.40;99.90;;;;;;5021849;28;20485;-82
2023/09/14 08:45:26;;;;;;;8.60;7.23;;;46.30;99.90;;;;;;5030308;28;20437;-83
2023/09/14 08:47:53;;;;;;;8.57;7.77;;;45.30;99.90;;;;;;5039048;28;20934;-83
2023/09/14 08:50:20;;;;;;;8.63;7.70;;;45.20;99.90;;;;;;5038004;28;21248;-82
2023/09/14 08:52:46;;;;;;;10.50;9.03;;;45.00;99.90;;;;;;5041775;28;20468;-81
2023/09/14 08:55:12;;;;;;;11.40;8.40;;;41.10;99.90;;;;;;5039794;28;20445;-82
2023/09/14 08:57:43;;;;;;;10.87;7.93;;;39.80;99.90;;;;;;5027194;28;20214;-83
2023/09/14 09:00:15;;;;;;;8.93;7.70;;;41.10;99.90;;;;;;5036305;28;20468;-82
2023/09/14 09:02:43;;;;;;;10.63;9.00;;;41.50;99.90;;;;;;5039927;28;20988;-82
2023/09/14 09:05:11;;;;;;;8.77;7.57;;;42.40;99.90;;;;;;5036406;28;21008;-81
2023/09/14 09:07:39;;;;;;;9.13;6.97;;;42.90;99.90;;;;;;5036190;28;20438;-82
2023/09/14 09:10:14;;;;;;;7.97;7.07;;;42.50;99.90;;;;;;5037279;28;20453;-82
2023/09/14 09:12:40;;;;;;;9.00;8.20;;;43.50;99.90;;;;;;5035309;28;20464;-82
2023/09/14 09:15:07;;;;;;;9.83;7.63;;;43.40;99.90;;;;;;5037418;28;20833;-81
2023/09/14 09:17:44;;;;;;;8.43;7.73;;;42.20;99.90;;;;;;5032199;28;20596;-82
2023/09/14 09:20:22;;;;;;;7.80;7.00;;;43.90;99.90;;;;;;5035993;28;20445;-82
2023/09/14 09:22:52;;;;;;;8.30;7.47;;;43.20;99.90;;;;;;5037858;28;21003;-81
2023/09/14 09:25:19;;;;;;;6.83;5.90;;;43.30;99.90;;;;;;5035757;28;20448;-82
2023/09/14 09:27:45;;;;;;;7.30;6.60;;;44.00;99.90;;;;;;5035527;28;20428;-81
2023/09/14 09:30:10;;;;;;;7.80;6.40;;;42.80;99.90;;;;;;5036066;28;20460;-82
2023/09/14 09:32:42;;;;;;;9.10;7.93;;;41.00;99.90;;;;;;5033937;28;20190;-82
2023/09/14 09:35:23;;;;;;;13.80;9.37;;;39.50;99.90;;;;;;5033861;28;20183;-82
2023/09/14 09:37:50;;;;;;;11.97;9.30;;;37.50;99.90;;;;;;5033471;28;20472;-80
2023/09/14 09:40:21;;;;;;;15.30;10.93;;;37.30;99.90;;;;;;5031352;28;20479;-81
2023/09/14 09:42:47;;;;;;;13.53;9.80;;;36.30;99.90;;;;;;5035493;28;20882;-82
2023/09/14 09:45:14;;;;;;;9.90;8.90;;;36.80;99.90;;;;;;5036281;28;20448;-81
2023/09/14 09:47:41;;;;;;;11.87;10.57;;;37.90;99.90;;;;;;5037210;28;20422;-82
2023/09/14 09:50:12;;;;;;;10.97;9.87;;;36.90;99.90;;;;;;5031915;28;20458;-81
2023/09/14 09:52:42;;;;;;;11.83;10.43;;;37.00;99.90;;;;;;5035643;28;20520;-82
2023/09/14 09:55:22;;;;;;;12.87;11.37;;;36.20;99.90;;;;;;5031853;28;20455;-83
2023/09/14 09:57:50;;;;;;;11.83;10.60;;;34.10;99.90;;;;;;5027983;28;21217;-79
2023/09/14 10:00:16;;;;;;;12.73;10.60;;;32.20;99.90;;;;;;5041621;28;20466;-80
2023/09/14 10:02:42;;;;;;;18.67;11.20;;;31.20;99.90;;;;;;5029564;28;20437;-81
2023/09/14 10:05:08;;;;;;;16.70;12.67;;;30.40;99.90;;;;;;5025137;28;20959;-82
2023/09/14 10:07:41;;;;;;;21.60;11.70;;;29.00;99.90;;;;;;5036632;28;20196;-81
2023/09/14 10:10:08;;;;;;;18.03;12.70;;;28.40;99.90;;;;;;5024640;28;20482;-82
2023/09/14 10:12:38;;;;;;;15.60;12.70;;;27.90;99.90;;;;;;5029383;28;20468;-81
2023/09/14 10:15:05;;;;;;;17.70;12.33;;;28.60;99.90;;;;;;5022599;28;20914;-80
2023/09/14 10:17:31;;;;;;;13.93;11.30;;;30.40;99.90;;;;;;5033424;28;20496;-80
2023/09/14 10:20:01;;;;;;;12.30;11.00;;;32.40;99.90;;;;;;5032546;28;20434;-81
2023/09/14 10:22:28;;;;;;;12.73;9.83;;;32.20;99.90;;;;;;5035358;28;20548;-81
2023/09/14 10:24:55;;;;;;;12.57;11.23;;;32.10;99.90;;;;;;5034330;28;21268;-81
2023/09/14 10:27:21;;;;;;;11.67;10.47;;;32.60;99.90;;;;;;5035056;28;20441;-80
2023/09/14 10:29:49;;;;;;;11.83;10.33;;;33.60;99.90;;;;;;5034262;28;20436;-80
2023/09/14 10:32:15;;;;;;;12.80;9.97;;;34.00;99.90;;;;;;5031404;28;20472;-81
2023/09/14 10:34:41;;;;;;;15.13;10.20;;;34.50;99.90;;;;;;5033706;28;20431;-81
2023/09/14 10:37:10;;;;;;;12.37;9.80;;;35.20;99.90;;;;;;5034885;28;20443;-81
2023/09/14 10:39:37;;;;;;;11.70;10.50;;;35.60;99.90;;;;;;5034010;28;20436;-81
2023/09/14 10:42:04;;;;;;;13.23;10.37;;;36.60;99.90;;;;;;5034107;28;20473;-79
2023/09/14 10:44:30;;;;;;;11.40;10.20;;;36.90;99.90;;;;;;5048520;28;20765;-81
2023/09/14 10:46:58;;;;;;;11.50;10.40;;;37.30;99.90;;;;;;5034335;28;21006;-81
2023/09/14 10:49:35;;;;;;;13.23;9.80;;;36.20;99.90;;;;;;5030922;28;20445;-82
2023/09/14 10:52:01;;;;;;;12.43;9.90;;;35.00;99.90;;;;;;5036754;28;20472;-81
2023/09/14 10:54:32;;;;;;;10.67;8.60;;;35.50;99.90;;;;;;5031786;28;20449;-81
2023/09/14 10:56:59;;;;;;;12.00;7.80;;;35.30;99.90;;;;;;5036475;28;20985;-81
2023/09/14 10:59:50;;;;;;;10.13;8.30;;;35.50;99.90;;;;;;5029979;28;20438;-82
2023/09/14 11:02:37;;;;;;;9.20;8.00;;;36.20;99.90;;;;;;5030951;28;20479;-81
2023/09/14 11:05:16;;;;;;;10.30;9.00;;;36.30;99.90;;;;;;5035051;28;20528;-79
2023/09/14 11:07:46;;;;;;;10.63;8.43;;;35.60;99.90;;;;;;5024549;28;20442;-82
2023/09/14 11:10:17;;;;;;;13.10;9.23;;;36.20;99.90;;;;;;5032376;28;20895;-81
2023/09/14 11:12:43;;;;;;;15.20;9.50;;;36.00;99.90;;;;;;5032272;28;20487;-82
2023/09/14 11:15:16;;;;;;;9.83;8.83;;;35.60;99.90;;;;;;5023770;28;20487;-82
2023/09/14 11:17:46;;;;;;;9.27;8.30;;;35.80;99.90;;;;;;5029712;28;20571;-84
2023/09/14 11:20:38;;;;;;;8.87;7.20;;;35.30;99.90;;;;;;5038107;28;20440;-80
2023/09/14 11:23:07;;;;;;;9.90;6.97;;;35.20;99.90;;;;;;5038191;28;20420;-82
2023/09/14 11:25:37;;;;;;;10.60;6.93;;;34.00;99.90;;;;;;5035418;28;20455;-84
2023/09/14 11:28:07;;;;;;;9.80;7.50;;;32.30;99.90;;;;;;5034164;28;20952;-83
2023/09/14 11:30:41;;;;;;;7.53;6.73;;;31.90;99.90;;;;;;5035458;28;20468;-82
2023/09/14 11:33:08;;;;;;;9.73;7.47;;;31.60;99.90;;;;;;5032440;28;20453;-79
2023/09/14 11:35:38;;;;;;;7.63;6.47;;;30.30;99.90;;;;;;5033251;28;20436;-80
2023/09/14 11:38:13;;;;;;;7.10;5.27;;;31.00;99.90;;;;;;5032802;28;20530;-81
2023/09/14 11:40:39;;;;;;;9.27;6.50;;;32.00;99.90;;;;;;5034548;28;20468;-82
2023/09/14 11:43:07;;;;;;;6.53;5.63;;;32.80;99.90;;;;;;5032993;28;20419;-80
2023/09/14 11:45:40;;;;;;;7.00;4.93;;;33.50;99.90;;;;;;5028876;28;20185;-83
2023/09/14 11:48:09;;;;;;;9.23;6.10;;;34.30;99.90;;;;;;5024290;28;20436;-83
2023/09/14 11:50:35;;;;;;;7.40;5.90;;;34.90;99.90;;;;;;5026300;28;20886;-82
2023/09/14 11:53:01;;;;;;;6.57;5.97;;;35.40;99.90;;;;;;5030198;28;20558;-84
2023/09/14 11:55:27;;;;;;;8.90;5.60;;;35.10;99.90;;;;;;5026773;28;20569;-84
2023/09/14 11:57:56;;;;;;;10.50;6.67;;;35.40;99.90;;;;;;5022949;28;20189;-80
2023/09/14 12:00:22;;;;;;;6.77;4.93;;;35.80;99.90;;;;;;5032736;28;20457;-84
2023/09/14 12:02:48;;;;;;;7.60;5.10;;;36.20;99.90;;;;;;5032199;28;20947;-84
2023/09/14 12:05:14;;;;;;;7.10;5.03;;;36.50;99.90;;;;;;5025679;28;20450;-83
2023/09/14 12:07:40;;;;;;;11.70;4.73;;;36.90;99.90;;;;;;5027750;28;20433;-82
2023/09/14 12:10:21;;;;;;;5.80;4.97;;;37.10;99.90;;;;;;5020247;28;20453;-84
2023/09/14 12:12:47;;;;;;;7.83;5.17;;;36.80;99.90;;;;;;5023809;28;20186;-83
2023/09/14 12:15:22;;;;;;;5.10;4.60;;;36.30;99.90;;;;;;5019659;28;20437;-83
2023/09/14 12:17:52;;;;;;;4.80;4.30;;;36.80;99.90;;;;;;5026786;28;20190;-83
2023/09/14 12:20:18;;;;;;;5.43;4.50;;;36.20;99.90;;;;;;5023062;28;20883;-83
2023/09/14 12:22:45;;;;;;;7.13;4.00;;;35.20;99.90;;;;;;5029570;28;20441;-82
2023/09/14 12:25:13;;;;;;;9.40;4.43;;;35.40;99.90;;;;;;5027301;28;20446;-82
2023/09/14 12:27:39;;;;;;;7.33;4.50;;;35.40;99.90;;;;;;5030942;28;20450;-79
2023/09/14 12:30:07;;;;;;;5.20;4.20;;;34.80;99.90;;;;;;5025652;28;20456;-84
2023/09/14 12:32:35;;;;;;;5.20;3.90;;;35.40;99.90;;;;;;5035373;28;20434;-83
2023/09/14 12:35:02;;;;;;;5.83;4.50;;;35.90;99.90;;;;;;5053625;28;20452;-85
2023/09/14 12:37:27;;;;;;;4.30;3.90;;;36.10;99.90;;;;;;5035487;28;20433;-83
2023/09/14 12:39:54;;;;;;;4.60;4.20;;;36.10;99.90;;;;;;5030345;28;20440;-81
2023/09/14 12:42:21;;;;;;;5.20;4.57;;;36.20;99.90;;;;;;5027874;28;20218;-82
2023/09/14 12:44:48;;;;;;;5.10;4.53;;;35.20;99.90;;;;;;5032287;28;20475;-82
2023/09/14 12:47:13;;;;;;;6.10;3.87;;;34.90;99.90;;;;;;5025142;28;20453;-82
2023/09/14 12:49:39;;;;;;;5.17;3.70;;;34.40;99.90;;;;;;5026412;28;20932;-83